< < Back
Terminal Aerodrome Forecast


Current Version              Previous Versions:   1  2  3  4  5  6  7  8  9  

Terminal Aerodrome Forecast

040
FTUS44 KMOB 120559
TAFPNS
TAF
KPNS 120559Z 1206/1306 24010KT P6SM SKC
     FM120800 24008KT 3SM BR SCT010 BKN015
     FM121500 27013KT P6SM FEW015 SCT250
     FM130300 32008KT P6SM FEW250=

Latest METAR

419
SAUS70 KWBC 121400 RRF
MTRPNS
METAR KPNS 121353Z 26013G20KT 10SM BKN009 16/14 A3022 RMK AO2 SLP234
T01610139


USA.gov is the U.S. government's official web portal to all federal, state and local government web resources and services.